Atlantic - Newfoundland: Past 24 Hour Conditions

 

Natashquan Airport

10:00 PM EDT 20 August 2014
This table is a summary of hourly weather conditions for the past 24 hours.
Date / Time
(EDT)
Wind(knots) Conditions Visibility(km) Pressure(kPa) Air tempC) Relative humidity(%) Dew pointC)
20 August 2014
22:00 NNW 8 Mostly Cloudy 16 101.6 16 82 13
21:00 N 6 Partly Cloudy 16 101.6 16 83 13
20:00 NNW 7 Mostly Cloudy 16 101.6 17 84 14
19:00 N 9 gust 15 Cloudy 16 101.5 18 77 14
18:00 N 11 Cloudy 16 101.5 20 68 14
17:00 N 10 gust 16 Cloudy 16 101.4 20 65 14
16:00 NNE 14 gust 19 Cloudy 16 101.3 21 62 13
15:00 NNE 13 gust 18 Cloudy 16 101.3 21 62 13
14:00 N 10 gust 15 Mostly Cloudy 16 101.3 20 66 14
13:00 N 13 Mostly Cloudy 16 101.3 20 66 13
12:00 N 12 gust 18 Cloudy 16 101.2 19 69 13
11:00 NE 9 gust 17 Cloudy 16 101.2 19 69 13
10:00 NNE 14 gust 21 Cloudy 16 101.2 18 70 13
9:00 NNE 13 Cloudy 16 101.1 17 74 13
8:00 NNE 12 gust 17 Mostly Cloudy 16 101.1 16 79 13
7:00 N 9 Cloudy 16 101.0 15 83 13
6:00 N 10 Cloudy 16 101.0 15 86 13
5:00 N 7 Cloudy 16 100.9 15 87 13
4:00 N 9 Cloudy 16 100.9 15 86 12
3:00 NNE 11 Cloudy 16 100.8 15 85 12
2:00 NNE 10 Cloudy 16 100.8 15 86 13
1:00 NNE 14 gust 19 Cloudy 16 100.7 15 86 13
0:00 NNE 11 gust 16 Cloudy 16 100.7 15 88 13
19 August 2014
23:00 NNE 11 gust 18 Cloudy 16 100.7 15 89 13
22:00 NNE 11 gust 20 Cloudy 16 100.6 15 89 13
 
Map of Atlantic - Newfoundland marine weather areas Southwestern Grand Banks - 44138 Banquereau - 44139 Tail of the Bank - 44140 Nickerson Bank - 44251 Northeast Burgeo Bank - 44255 Blanc-Sablon Airport Cap Whittle Chevery Natashquan Airport Heath Point Miscou Island Grand Étang Ingonish Beach North Mountain St.Paul Island J.A. Douglas McCurdy Sydney Airport Charlottetown Airport East Point North Cape Argentia Bonavista Burgeo Cape Race Corner Brook Daniel's Harbour Englee Ferolle Point La Scie Port aux Basques Rocky Harbour Sagona Island St. Anthony Airport St. John's Int'l Airport St. Lawrence Stephenville Airport Twillingate Winterland Wreckhouse Cartwright Airport Mary's Harbour Grates Cove Pool's Island Marticot Island Long Pond Îles de la Madeleine Airport
Legend: buoyBuoy land stationLand Station